Time;durP1;ratioP1;P1;durP2;ratioP2;P2;SDS_P1;SDS_P2;PMS_P1;PMS_P2;Temp;Humidity;BMP_temperature;BMP_pressure;BME280_temperature;BME280_humidity;BME280_pressure;Samples;Min_cycle;Max_cycle;Signal;HPM_P1;HPM_P2
2023/02/23 00:03:00;;;;;;;15.13;7.90;;;11.80;99.90;;;;;;10031231;28;20033;-65
2023/02/23 00:07:51;;;;;;;16.98;8.73;;;11.80;99.90;;;;;;10027688;28;20026;-67
2023/02/23 00:12:43;;;;;;;13.52;7.82;;;11.70;99.90;;;;;;10047837;28;20456;-66
2023/02/23 00:17:35;;;;;;;17.92;9.05;;;11.70;99.90;;;;;;10043623;28;20022;-65
2023/02/23 00:22:26;;;;;;;18.02;8.25;;;11.60;99.90;;;;;;10054916;28;20041;-66
2023/02/23 00:27:19;;;;;;;16.98;8.10;;;11.60;99.90;;;;;;10031957;28;20026;-65
2023/02/23 00:32:10;;;;;;;13.88;8.15;;;11.50;99.90;;;;;;10045491;28;20054;-64
2023/02/23 00:37:01;;;;;;;16.25;8.70;;;11.60;99.90;;;;;;10022257;28;20033;-65
2023/02/23 00:41:52;;;;;;;13.60;8.50;;;11.50;99.90;;;;;;10058498;28;20104;-66
2023/02/23 00:46:44;;;;;;;14.55;7.75;;;11.50;99.90;;;;;;10032858;28;20025;-64
2023/02/23 00:51:36;;;;;;;16.10;8.55;;;11.50;99.90;;;;;;10021916;28;20042;-65
2023/02/23 00:56:27;;;;;;;17.40;8.98;;;11.50;99.90;;;;;;10032998;28;20053;-67
2023/02/23 01:01:18;;;;;;;14.50;7.65;;;11.40;99.90;;;;;;10021798;28;20022;-66
2023/02/23 01:06:12;;;;;;;14.88;7.88;;;11.40;99.90;;;;;;10027256;28;20335;-69
2023/02/23 01:11:21;;;;;;;16.20;7.85;;;11.40;99.90;;;;;;10060268;28;20041;-65
2023/02/23 01:16:14;;;;;;;13.50;7.15;;;11.40;99.90;;;;;;10035902;28;20022;-65
2023/02/23 01:21:16;;;;;;;17.17;8.43;;;11.40;99.90;;;;;;10037021;28;20101;-64
2023/02/23 01:26:15;;;;;;;15.30;7.60;;;11.30;99.90;;;;;;10056610;28;20266;-66
2023/02/23 01:31:09;;;;;;;17.20;8.00;;;11.30;99.90;;;;;;10052125;28;20041;-65
2023/02/23 01:36:00;;;;;;;14.07;8.23;;;11.40;99.90;;;;;;10139856;23;20142;-62
2023/02/23 01:40:51;;;;;;;19.15;8.38;;;11.40;99.90;;;;;;10115573;28;20025;-62
2023/02/23 01:45:43;;;;;;;14.73;8.18;;;11.30;99.90;;;;;;10117050;28;20112;-61
2023/02/23 01:51:02;;;;;;;14.90;7.75;;;11.30;99.90;;;;;;10129982;28;20109;-61
2023/02/23 01:56:02;;;;;;;14.82;7.78;;;11.30;99.90;;;;;;10138572;28;20024;-62
2023/02/23 02:00:56;;;;;;;14.23;7.72;;;11.30;99.90;;;;;;10140382;28;20423;-62
2023/02/23 02:05:48;;;;;;;17.33;8.13;;;11.30;99.90;;;;;;10139592;28;20056;-62
2023/02/23 02:10:39;;;;;;;20.35;8.63;;;11.30;99.90;;;;;;10103054;28;20075;-62
2023/02/23 02:15:37;;;;;;;17.08;8.55;;;11.30;99.90;;;;;;10128823;28;20163;-61
2023/02/23 02:21:03;;;;;;;14.20;8.65;;;11.30;99.90;;;;;;10105274;28;20490;-61
2023/02/23 02:26:09;;;;;;;14.35;7.93;;;11.20;99.90;;;;;;10125655;28;20027;-61
2023/02/23 02:31:12;;;;;;;14.63;8.73;;;11.30;99.90;;;;;;10121432;28;20044;-63
2023/02/23 02:36:40;;;;;;;13.85;8.00;;;11.30;99.90;;;;;;10138006;28;20051;-62
2023/02/23 02:41:58;;;;;;;16.23;8.32;;;11.20;99.90;;;;;;10137418;28;20028;-62
2023/02/23 02:46:58;;;;;;;16.60;10.18;;;11.30;99.90;;;;;;10106635;28;20021;-61
2023/02/23 02:52:07;;;;;;;17.98;9.40;;;11.30;99.90;;;;;;10137271;28;20032;-62
2023/02/23 02:57:03;;;;;;;17.10;9.32;;;11.10;99.90;;;;;;10141787;28;20445;-64
2023/02/23 04:21:52;;;;;;;15.02;8.00;;;11.20;99.90;;;;;;10142492;28;20059;-62
2023/02/23 04:26:42;;;;;;;14.90;7.65;;;11.10;99.90;;;;;;10140399;28;20024;-62
2023/02/23 04:31:33;;;;;;;16.23;8.55;;;11.10;99.90;;;;;;10113012;28;20068;-61
2023/02/23 04:36:25;;;;;;;20.00;7.53;;;11.00;99.90;;;;;;10139374;28;20328;-62
2023/02/23 04:41:16;;;;;;;15.20;7.53;;;11.10;99.90;;;;;;10141261;28;20050;-62
2023/02/23 04:46:07;;;;;;;18.23;8.98;;;11.10;99.90;;;;;;10115592;28;20120;-62
2023/02/23 04:50:58;;;;;;;15.32;7.75;;;11.10;99.90;;;;;;10135062;28;20120;-61
2023/02/23 04:55:48;;;;;;;15.38;7.70;;;11.20;99.90;;;;;;10140861;28;20024;-62
2023/02/23 05:00:40;;;;;;;14.02;7.07;;;11.20;99.90;;;;;;10100419;28;20037;-63
2023/02/23 05:05:31;;;;;;;14.00;6.75;;;11.20;99.90;;;;;;10101326;28;20079;-62
2023/02/23 05:10:22;;;;;;;18.83;8.60;;;11.30;99.90;;;;;;10126633;28;20032;-63
2023/02/23 05:15:13;;;;;;;16.70;7.97;;;11.30;99.90;;;;;;10135005;28;20417;-62
2023/02/23 05:20:04;;;;;;;13.93;9.45;;;11.20;99.90;;;;;;10125794;28;20279;-61
2023/02/23 05:24:54;;;;;;;18.25;9.48;;;11.20;99.90;;;;;;10139500;28;20104;-62
2023/02/23 05:29:45;;;;;;;15.65;7.80;;;11.20;99.90;;;;;;10125665;28;20144;-62
2023/02/23 05:34:37;;;;;;;15.95;8.50;;;11.20;99.90;;;;;;10135774;28;20561;-62
2023/02/23 05:39:29;;;;;;;18.75;8.90;;;11.20;99.90;;;;;;10139153;28;20186;-62
2023/02/23 05:44:19;;;;;;;20.55;9.15;;;11.20;99.90;;;;;;10128450;28;20025;-61
2023/02/23 05:49:10;;;;;;;17.67;7.85;;;11.30;99.90;;;;;;10117957;28;20078;-62
2023/02/23 05:54:01;;;;;;;12.70;6.55;;;11.30;99.90;;;;;;10111644;28;20521;-63
2023/02/23 05:58:56;;;;;;;14.45;8.10;;;11.30;99.90;;;;;;10098506;28;20479;-62
2023/02/23 06:03:48;;;;;;;14.05;8.00;;;11.30;99.90;;;;;;10135972;28;20115;-62
2023/02/23 06:08:39;;;;;;;15.98;7.30;;;11.40;99.90;;;;;;10135134;28;20458;-62
2023/02/23 06:13:30;;;;;;;14.93;8.05;;;11.40;99.90;;;;;;10119978;28;20033;-62
2023/02/23 06:18:21;;;;;;;12.88;7.18;;;11.30;99.90;;;;;;10137509;28;20128;-61
2023/02/23 06:23:12;;;;;;;17.13;7.45;;;11.30;99.90;;;;;;10137622;28;20024;-62
2023/02/23 06:28:03;;;;;;;16.13;7.63;;;11.30;99.90;;;;;;10137541;28;20302;-61
2023/02/23 06:32:54;;;;;;;16.15;7.40;;;11.30;99.90;;;;;;10127400;28;20053;-62
2023/02/23 06:37:45;;;;;;;17.70;7.95;;;11.40;99.90;;;;;;10146582;28;20035;-63
2023/02/23 06:42:35;;;;;;;17.65;8.68;;;11.30;99.90;;;;;;10146216;28;20028;-61
2023/02/23 06:47:26;;;;;;;13.75;6.60;;;11.40;99.90;;;;;;10114425;28;20039;-62
2023/02/23 06:52:17;;;;;;;11.88;7.07;;;11.30;99.90;;;;;;10106936;28;20082;-62
2023/02/23 06:57:08;;;;;;;20.38;7.63;;;11.40;99.90;;;;;;10105857;28;20040;-61
2023/02/23 07:02:00;;;;;;;11.85;7.35;;;11.40;99.90;;;;;;10120986;28;20394;-62
2023/02/23 07:06:51;;;;;;;14.82;7.78;;;11.50;99.90;;;;;;10145187;28;20020;-62
2023/02/23 07:11:43;;;;;;;15.30;7.20;;;11.40;99.90;;;;;;10120498;28;20078;-62
2023/02/23 07:16:34;;;;;;;15.98;8.00;;;11.40;99.90;;;;;;10139335;28;20024;-63
2023/02/23 07:21:24;;;;;;;15.32;7.65;;;11.40;99.90;;;;;;10144450;28;20028;-62
2023/02/23 07:26:16;;;;;;;14.82;7.60;;;11.40;99.90;;;;;;10144403;28;20035;-63
2023/02/23 07:31:07;;;;;;;14.00;7.22;;;11.40;99.90;;;;;;10130316;28;20112;-62
2023/02/23 07:35:58;;;;;;;14.93;6.88;;;11.50;99.90;;;;;;10132242;28;20119;-59
2023/02/23 07:40:50;;;;;;;13.80;7.82;;;11.60;99.90;;;;;;10129536;28;20438;-58
2023/02/23 07:45:40;;;;;;;12.73;7.05;;;11.70;99.90;;;;;;10134198;28;20025;-63
2023/02/23 07:50:31;;;;;;;11.90;6.65;;;11.80;99.90;;;;;;10129350;28;20025;-61
2023/02/23 07:55:22;;;;;;;14.25;7.28;;;11.80;99.90;;;;;;10127189;28;20119;-58
2023/02/23 08:00:13;;;;;;;13.80;7.43;;;11.80;99.90;;;;;;10136473;28;20021;-62
2023/02/23 08:05:04;;;;;;;12.40;6.75;;;11.80;99.90;;;;;;10142466;28;20521;-59
2023/02/23 08:09:55;;;;;;;16.27;8.38;;;11.90;99.90;;;;;;10129854;28;20093;-59
2023/02/23 08:14:45;;;;;;;12.27;7.00;;;11.90;99.90;;;;;;10127477;28;20085;-59
2023/02/23 08:19:36;;;;;;;15.43;6.65;;;11.90;99.90;;;;;;10126875;28;20032;-59
2023/02/23 08:24:28;;;;;;;15.55;7.18;;;12.00;99.90;;;;;;10127878;28;20028;-59
2023/02/23 08:29:20;;;;;;;12.95;6.38;;;11.90;99.90;;;;;;10130271;28;20028;-60
2023/02/23 08:34:12;;;;;;;14.23;6.90;;;12.00;99.90;;;;;;10126851;28;20149;-61
2023/02/23 08:39:05;;;;;;;15.38;7.50;;;11.90;99.90;;;;;;10126905;28;20056;-56
2023/02/23 08:43:57;;;;;;;15.35;7.45;;;12.00;99.90;;;;;;10129654;28;20090;-56
2023/02/23 08:48:48;;;;;;;10.80;6.68;;;12.20;99.90;;;;;;10126171;28;20080;-59
2023/02/23 08:53:39;;;;;;;11.70;6.85;;;12.30;99.90;;;;;;10129027;28;20063;-57
2023/02/23 08:58:30;;;;;;;19.33;8.02;;;12.40;99.90;;;;;;10128129;28;20109;-60
2023/02/23 09:03:21;;;;;;;17.10;8.45;;;12.50;99.90;;;;;;10128783;28;20024;-62
2023/02/23 09:08:14;;;;;;;16.70;8.90;;;12.60;99.90;;;;;;10128660;28;20035;-57
2023/02/23 09:13:05;;;;;;;13.77;7.93;;;12.50;99.90;;;;;;10131251;28;20071;-62
2023/02/23 09:18:01;;;;;;;18.35;8.70;;;12.70;99.90;;;;;;10128401;28;20021;-60
2023/02/23 09:22:52;;;;;;;13.40;7.97;;;12.60;99.90;;;;;;10124871;28;20383;-61
2023/02/23 09:27:44;;;;;;;13.02;7.57;;;12.60;99.90;;;;;;10130698;28;20029;-60
2023/02/23 09:32:35;;;;;;;16.80;8.20;;;12.70;99.90;;;;;;10121817;28;20047;-59
2023/02/23 09:37:26;;;;;;;19.98;9.30;;;12.70;99.90;;;;;;10130422;28;20454;-59
2023/02/23 09:42:52;;;;;;;17.02;8.43;;;12.70;99.90;;;;;;10124550;28;20028;-60
2023/02/23 09:48:05;;;;;;;13.90;7.80;;;12.60;99.90;;;;;;10125558;28;20032;-61
2023/02/23 09:53:07;;;;;;;15.82;9.55;;;12.70;99.90;;;;;;10143926;28;20141;-59
2023/02/23 09:58:21;;;;;;;17.13;9.60;;;13.00;99.90;;;;;;10125117;28;20021;-59
2023/02/23 10:03:53;;;;;;;19.88;8.73;;;13.00;99.90;;;;;;10141173;28;20029;-60
2023/02/23 10:09:13;;;;;;;18.83;9.63;;;12.90;99.90;;;;;;10102132;28;20082;-57
2023/02/23 10:14:24;;;;;;;18.10;10.18;;;12.90;99.90;;;;;;10130792;28;20119;-65
2023/02/23 10:19:21;;;;;;;17.67;8.63;;;13.00;99.90;;;;;;10125687;28;20074;-69
2023/02/23 10:24:21;;;;;;;16.83;9.35;;;13.00;99.90;;;;;;10118851;28;20017;-68
2023/02/23 10:29:38;;;;;;;13.07;7.97;;;13.10;99.90;;;;;;10129078;28;20025;-62
2023/02/23 10:34:30;;;;;;;12.93;7.25;;;13.20;99.90;;;;;;10130701;28;20098;-68
2023/02/23 10:39:21;;;;;;;16.92;8.10;;;13.40;99.90;;;;;;10121917;28;20020;-66
2023/02/23 10:44:21;;;;;;;14.15;8.02;;;13.60;99.90;;;;;;10125930;28;20021;-66
2023/02/23 10:49:21;;;;;;;12.80;8.25;;;13.80;99.90;;;;;;10119325;28;20446;-67
2023/02/23 10:54:38;;;;;;;13.35;7.85;;;14.10;99.90;;;;;;10123251;28;20029;-66
2023/02/23 10:59:29;;;;;;;13.07;7.85;;;14.30;99.90;;;;;;10122502;28;20113;-67
2023/02/23 11:04:29;;;;;;;15.00;9.43;;;14.20;99.90;;;;;;10118778;28;20025;-68
2023/02/23 11:09:24;;;;;;;14.32;7.50;;;14.40;99.90;;;;;;10121079;28;20028;-67
2023/02/23 11:14:16;;;;;;;11.23;7.53;;;14.60;99.90;;;;;;10123933;28;20103;-65
2023/02/23 11:19:36;;;;;;;13.55;7.10;;;14.80;99.90;;;;;;10139406;28;20028;-68
2023/02/23 11:24:32;;;;;;;11.25;7.00;;;14.70;99.90;;;;;;10142727;28;20028;-67
2023/02/23 11:29:35;;;;;;;13.13;7.78;;;14.60;99.90;;;;;;10142528;28;20025;-67
2023/02/23 11:34:34;;;;;;;15.90;7.93;;;14.90;99.90;;;;;;10140790;28;20563;-68
2023/02/23 11:39:25;;;;;;;12.65;7.45;;;15.00;99.90;;;;;;10143891;28;20066;-67
2023/02/23 11:44:22;;;;;;;11.57;6.50;;;14.90;99.90;;;;;;10130428;28;20029;-66
2023/02/23 11:49:26;;;;;;;16.20;7.22;;;14.80;99.90;;;;;;10112494;28;20115;-68
2023/02/23 11:54:28;;;;;;;12.82;6.95;;;14.70;99.90;;;;;;10098342;28;20145;-67
2023/02/23 11:59:32;;;;;;;15.27;7.80;;;14.50;99.90;;;;;;10101953;28;20029;-67
2023/02/23 12:04:29;;;;;;;13.07;7.07;;;14.70;99.90;;;;;;10139314;28;20039;-67
2023/02/23 12:09:31;;;;;;;15.57;8.63;;;14.90;99.90;;;;;;10143513;28;20032;-67
2023/02/23 12:14:43;;;;;;;14.55;7.80;;;14.90;99.90;;;;;;10136354;28;20044;-66
2023/02/23 12:19:46;;;;;;;14.02;8.60;;;15.30;99.90;;;;;;10108044;28;20407;-66
2023/02/23 12:25:12;;;;;;;12.77;7.28;;;15.30;99.90;;;;;;10140599;28;20025;-66
2023/02/23 12:30:18;;;;;;;13.88;7.68;;;15.30;99.90;;;;;;10102082;28;20430;-67
2023/02/23 12:35:12;;;;;;;;;;;15.20;99.90;;;;;;10126886;28;20041;-67
2023/02/23 12:40:17;;;;;;;12.93;7.18;;;15.20;99.90;;;;;;10120930;28;19928;-66
2023/02/23 12:45:35;;;;;;;12.38;8.05;;;15.20;99.90;;;;;;10126326;28;20047;-66
2023/02/23 12:50:47;;;;;;;15.13;8.73;;;15.20;99.90;;;;;;10122045;28;20048;-67
2023/02/23 12:55:48;;;;;;;15.30;8.32;;;15.00;99.90;;;;;;10125446;28;20128;-64
2023/02/23 13:00:55;;;;;;;12.77;7.57;;;15.20;99.90;;;;;;10131140;28;20074;-67
2023/02/23 13:05:48;;;;;;;12.77;6.97;;;15.50;99.90;;;;;;10128216;28;20031;-68
2023/02/23 13:11:06;;;;;;;13.05;7.60;;;15.60;99.90;;;;;;10118714;28;20317;-69
2023/02/23 13:16:09;;;;;;;14.65;7.75;;;15.70;99.90;;;;;;10130194;28;20020;-70
2023/02/23 13:21:07;;;;;;;14.50;7.38;;;15.80;99.90;;;;;;10121336;28;20534;-68
2023/02/23 13:26:11;;;;;;;14.88;7.10;;;15.60;99.90;;;;;;10116785;28;20594;-67
2023/02/23 13:31:03;;;;;;;18.85;8.63;;;15.60;99.90;;;;;;10131535;28;20032;-69
2023/02/23 13:35:54;;;;;;;17.15;10.25;;;15.50;99.90;;;;;;10131229;28;20071;-63
2023/02/23 13:41:24;;;;;;;19.35;10.27;;;15.10;99.90;;;;;;10133770;28;20065;-60
2023/02/23 13:46:27;;;;;;;17.33;10.20;;;15.00;99.90;;;;;;10122072;28;20040;-61
2023/02/23 13:51:40;;;;;;;17.88;11.27;;;14.90;99.90;;;;;;10131416;28;20033;-64
2023/02/23 13:56:42;;;;;;;16.75;9.63;;;14.80;99.90;;;;;;10133252;28;20394;-63
2023/02/23 14:01:42;;;;;;;20.23;11.70;;;14.70;99.90;;;;;;10132450;28;20032;-61
2023/02/23 14:06:33;;;;;;;19.50;9.82;;;14.60;99.90;;;;;;10130898;28;20278;-61
2023/02/23 14:11:40;;;;;;;19.23;10.80;;;14.60;99.90;;;;;;10130542;28;20036;-62
2023/02/23 14:16:31;;;;;;;20.42;11.90;;;14.50;99.90;;;;;;10130628;28;20028;-61
2023/02/23 14:21:30;;;;;;;20.55;11.13;;;14.40;99.90;;;;;;10132426;28;20490;-63
2023/02/23 14:26:26;;;;;;;17.52;10.65;;;14.30;99.90;;;;;;10132087;28;20037;-61
2023/02/23 14:31:20;;;;;;;19.88;11.10;;;14.60;99.90;;;;;;10132339;28;20492;-62
2023/02/23 14:36:20;;;;;;;20.75;10.77;;;14.50;99.90;;;;;;10126718;28;20267;-61
2023/02/23 14:41:11;;;;;;;17.52;10.65;;;14.40;99.90;;;;;;10130263;28;20029;-60
2023/02/23 14:46:04;;;;;;;17.63;10.95;;;14.40;99.90;;;;;;10132973;28;20025;-63
2023/02/23 14:51:17;;;;;;;18.02;10.55;;;14.30;99.90;;;;;;10127757;28;20028;-60
2023/02/23 14:56:20;;;;;;;19.00;10.45;;;14.10;99.90;;;;;;10138720;28;20102;-64
2023/02/23 15:01:11;;;;;;;20.00;11.65;;;14.10;99.90;;;;;;10134865;28;20077;-63
2023/02/23 15:06:02;;;;;;;17.98;10.18;;;14.00;99.90;;;;;;10139245;28;20111;-62
2023/02/23 15:11:08;;;;;;;17.52;9.35;;;14.00;99.90;;;;;;10136169;28;20588;-60
2023/02/23 15:16:25;;;;;;;18.52;11.70;;;14.00;99.90;;;;;;10131709;28;20034;-63
2023/02/23 15:21:19;;;;;;;14.52;9.15;;;14.10;99.90;;;;;;10139074;28;20458;-59
2023/02/23 15:26:37;;;;;;;18.38;9.93;;;14.10;99.90;;;;;;10137728;28;20039;-63
2023/02/23 15:31:30;;;;;;;16.38;10.30;;;14.20;99.90;;;;;;10136631;28;20059;-62
2023/02/23 15:36:28;;;;;;;15.93;8.63;;;14.30;99.90;;;;;;10135005;28;20123;-61
2023/02/23 15:41:26;;;;;;;13.80;9.40;;;14.30;99.90;;;;;;10139216;28;20043;-63
2023/02/23 15:46:27;;;;;;;17.50;10.73;;;14.50;99.90;;;;;;10139593;28;20021;-59
2023/02/23 15:51:38;;;;;;;19.98;9.95;;;14.30;99.90;;;;;;10133238;28;20293;-60
2023/02/23 15:56:29;;;;;;;17.33;9.63;;;14.00;99.90;;;;;;10133351;28;20112;-62
2023/02/23 16:01:25;;;;;;;16.52;9.68;;;13.70;99.90;;;;;;10132985;28;20289;-64
2023/02/23 16:06:34;;;;;;;16.23;9.95;;;13.60;99.90;;;;;;10136793;28;20026;-60
2023/02/23 16:11:29;;;;;;;15.40;8.18;;;13.60;99.90;;;;;;10129691;28;20512;-61
2023/02/23 16:16:24;;;;;;;16.50;8.98;;;13.60;99.90;;;;;;10130002;28;20025;-60
2023/02/23 16:21:20;;;;;;;17.92;8.90;;;13.70;99.90;;;;;;10138289;28;20029;-63
2023/02/23 16:26:15;;;;;;;12.77;6.25;;;13.60;99.90;;;;;;10136829;28;20033;-60
2023/02/23 16:31:12;;;;;;;11.13;6.07;;;13.40;99.90;;;;;;10138183;28;20048;-62
2023/02/23 16:36:09;;;;;;;10.00;5.53;;;13.40;99.90;;;;;;10133382;28;20083;-60
2023/02/23 16:41:05;;;;;;;9.98;6.28;;;13.40;99.90;;;;;;10130545;28;20035;-60
2023/02/23 16:45:55;;;;;;;11.18;6.78;;;13.30;99.90;;;;;;10134011;28;20112;-61
2023/02/23 16:50:47;;;;;;;13.05;6.82;;;13.30;99.90;;;;;;10132968;28;20141;-64
2023/02/23 16:55:42;;;;;;;11.32;6.20;;;13.30;99.90;;;;;;10134488;28;20044;-63
2023/02/23 17:00:33;;;;;;;11.83;7.70;;;13.20;99.90;;;;;;10135049;28;20380;-62
2023/02/23 17:05:24;;;;;;;16.05;7.72;;;13.20;99.90;;;;;;10130482;28;20761;-63
2023/02/23 17:10:24;;;;;;;14.30;7.22;;;13.10;99.90;;;;;;10126752;28;20028;-61
2023/02/23 17:15:17;;;;;;;12.02;7.45;;;13.00;99.90;;;;;;10120470;28;20056;-62
2023/02/23 17:20:14;;;;;;;14.52;8.60;;;12.90;99.90;;;;;;10128973;28;20121;-62
2023/02/23 17:25:05;;;;;;;16.73;8.77;;;12.90;99.90;;;;;;10126334;28;20028;-61
2023/02/23 17:29:56;;;;;;;17.35;10.55;;;12.80;99.90;;;;;;10137206;28;20020;-61
2023/02/23 17:34:49;;;;;;;17.50;9.85;;;12.80;99.90;;;;;;10123683;28;20066;-65
2023/02/23 17:39:39;;;;;;;19.35;8.70;;;12.80;99.90;;;;;;10122444;28;20060;-63
2023/02/23 17:44:30;;;;;;;11.52;6.95;;;12.60;99.90;;;;;;10135719;28;20055;-62
2023/02/23 17:49:21;;;;;;;12.27;6.75;;;12.50;99.90;;;;;;10132563;28;20029;-60
2023/02/23 17:54:12;;;;;;;13.93;6.55;;;12.40;99.90;;;;;;10134257;28;20047;-62
2023/02/23 17:59:04;;;;;;;15.93;6.65;;;12.40;99.90;;;;;;10132533;28;20072;-67
2023/02/23 18:03:57;;;;;;;9.45;5.20;;;12.40;99.90;;;;;;10134498;28;20029;-63
2023/02/23 18:08:48;;;;;;;10.02;5.45;;;12.30;99.90;;;;;;10133958;28;20029;-62
2023/02/23 18:13:38;;;;;;;8.43;5.60;;;12.20;99.90;;;;;;10128845;28;20029;-64
2023/02/23 18:18:29;;;;;;;14.27;5.53;;;12.20;99.90;;;;;;10111728;28;20025;-63
2023/02/23 18:23:21;;;;;;;8.93;5.55;;;12.20;99.90;;;;;;10116546;28;20581;-63
2023/02/23 18:28:12;;;;;;;9.90;4.70;;;12.10;99.90;;;;;;10135067;28;20026;-66
2023/02/23 18:33:03;;;;;;;10.10;4.82;;;12.10;99.90;;;;;;10128838;28;20136;-64
2023/02/23 18:37:54;;;;;;;8.30;4.38;;;12.00;99.90;;;;;;10132293;28;20028;-66
2023/02/23 18:42:45;;;;;;;8.50;4.80;;;12.00;99.90;;;;;;10131231;28;20033;-64
2023/02/23 18:47:37;;;;;;;10.20;5.65;;;11.90;99.90;;;;;;10133558;28;20031;-61
2023/02/23 18:52:28;;;;;;;7.15;4.18;;;11.70;99.90;;;;;;10130742;28;20127;-60
2023/02/23 18:57:18;;;;;;;11.93;6.13;;;11.70;99.90;;;;;;10122275;28;20123;-61
2023/02/23 19:02:09;;;;;;;10.27;5.55;;;11.60;99.90;;;;;;10128124;28;20168;-61
2023/02/23 19:07:00;;;;;;;11.60;5.97;;;11.60;99.90;;;;;;10127648;28;20078;-62
2023/02/23 19:11:52;;;;;;;11.98;6.15;;;11.70;99.90;;;;;;10132629;28;20248;-60
2023/02/23 19:16:44;;;;;;;8.90;5.20;;;11.70;99.90;;;;;;10131446;28;20145;-59
2023/02/23 19:21:35;;;;;;;12.45;6.13;;;11.80;99.90;;;;;;10119568;28;20032;-58
2023/02/23 19:26:26;;;;;;;8.48;5.65;;;11.80;99.90;;;;;;10131790;28;20553;-57
2023/02/23 19:31:20;;;;;;;9.80;5.60;;;11.90;99.90;;;;;;10130441;28;20086;-59
2023/02/23 19:36:13;;;;;;;11.88;7.20;;;11.80;99.90;;;;;;10130420;28;20044;-58
2023/02/23 19:41:06;;;;;;;11.75;7.18;;;11.90;99.90;;;;;;10137616;28;20023;-62
2023/02/23 19:46:05;;;;;;;13.80;6.20;;;12.00;99.90;;;;;;10138260;28;20169;-60
2023/02/23 19:50:56;;;;;;;11.45;6.05;;;12.00;99.90;;;;;;10135667;28;20040;-62
2023/02/23 19:55:46;;;;;;;14.75;6.63;;;11.90;99.90;;;;;;10140299;28;20040;-62
2023/02/23 20:00:38;;;;;;;13.00;7.78;;;11.80;99.90;;;;;;10135572;28;20029;-63
2023/02/23 20:05:30;;;;;;;11.65;5.90;;;11.90;99.90;;;;;;10134667;28;20494;-63
2023/02/23 20:10:24;;;;;;;13.38;6.88;;;12.00;99.90;;;;;;10136133;28;20016;-60
2023/02/23 20:15:15;;;;;;;9.45;6.78;;;12.10;99.90;;;;;;10134682;28;20020;-58
2023/02/23 20:20:09;;;;;;;10.50;6.10;;;12.10;99.90;;;;;;10126700;28;20032;-60
2023/02/23 20:24:59;;;;;;;10.60;5.45;;;12.00;99.90;;;;;;10134194;28;20092;-60
2023/02/23 20:29:52;;;;;;;12.15;6.47;;;12.10;99.90;;;;;;10138455;28;20109;-63
2023/02/23 20:34:44;;;;;;;12.30;5.75;;;12.10;99.90;;;;;;10128598;28;20761;-61
2023/02/23 20:39:35;;;;;;;9.68;5.45;;;12.00;99.90;;;;;;10137479;28;20478;-59
2023/02/23 20:44:27;;;;;;;10.30;5.60;;;12.00;99.90;;;;;;10127732;28;20060;-61
2023/02/23 20:49:19;;;;;;;11.80;5.97;;;12.10;99.90;;;;;;10121845;28;20278;-61
2023/02/23 20:54:10;;;;;;;11.45;6.78;;;12.10;99.90;;;;;;10133846;28;20138;-61
2023/02/23 20:59:03;;;;;;;13.23;5.80;;;12.20;99.90;;;;;;10132948;28;20278;-60
2023/02/23 21:03:55;;;;;;;9.65;5.95;;;12.10;99.90;;;;;;10123281;28;20077;-62
2023/02/23 21:08:49;;;;;;;11.75;6.80;;;12.10;99.90;;;;;;10129213;28;20029;-60
2023/02/23 21:13:40;;;;;;;12.48;6.65;;;12.10;99.90;;;;;;10130653;28;20048;-62
2023/02/23 21:18:31;;;;;;;11.23;6.85;;;12.20;99.90;;;;;;10136089;28;20114;-61
2023/02/23 21:23:23;;;;;;;10.05;6.07;;;12.10;99.90;;;;;;10134783;28;20028;-63
2023/02/23 21:28:14;;;;;;;12.90;7.28;;;12.10;99.90;;;;;;10134682;28;20024;-59
2023/02/23 21:33:04;;;;;;;11.73;7.28;;;12.10;99.90;;;;;;10128298;28;20095;-61
2023/02/23 21:37:55;;;;;;;13.50;6.43;;;12.10;99.90;;;;;;10124431;28;20564;-61
2023/02/23 21:42:47;;;;;;;10.95;6.20;;;12.10;99.90;;;;;;10130059;28;20491;-59
2023/02/23 21:47:40;;;;;;;12.75;7.43;;;12.10;99.90;;;;;;10132594;28;20063;-61
2023/02/23 21:52:31;;;;;;;13.43;6.85;;;12.10;99.90;;;;;;10135296;28;20126;-63
2023/02/23 21:57:25;;;;;;;11.93;7.20;;;11.90;99.90;;;;;;10127582;28;20031;-62
2023/02/23 22:02:15;;;;;;;14.07;7.05;;;11.90;99.90;;;;;;10124762;28;20331;-61
2023/02/23 22:07:07;;;;;;;13.60;7.72;;;11.90;99.90;;;;;;10133610;28;20013;-63
2023/02/23 22:11:58;;;;;;;11.20;5.88;;;11.90;99.90;;;;;;10118030;28;20121;-62
2023/02/23 22:16:49;;;;;;;10.85;6.38;;;11.90;99.90;;;;;;10133552;28;20109;-61
2023/02/23 22:21:43;;;;;;;10.00;6.10;;;11.90;99.90;;;;;;10136250;28;20047;-61
2023/02/23 22:26:36;;;;;;;10.25;6.97;;;11.90;99.90;;;;;;10124420;28;20454;-61
2023/02/23 22:31:27;;;;;;;12.15;6.57;;;11.90;99.90;;;;;;10122643;28;20128;-62
2023/02/23 22:36:18;;;;;;;15.07;7.47;;;11.80;99.90;;;;;;10129846;28;20047;-62
2023/02/23 22:41:09;;;;;;;16.08;7.43;;;11.80;99.90;;;;;;10125161;28;20035;-61
2023/02/23 22:46:00;;;;;;;14.35;7.97;;;11.80;99.90;;;;;;10138310;28;20410;-61
2023/02/23 22:50:50;;;;;;;11.57;7.38;;;11.80;99.90;;;;;;10138281;28;20035;-63
2023/02/23 22:55:52;;;;;;;11.77;6.97;;;11.70;99.90;;;;;;10138751;28;20031;-61
2023/02/23 23:01:02;;;;;;;12.65;6.85;;;11.60;99.90;;;;;;10137756;28;20024;-62
2023/02/23 23:05:54;;;;;;;12.13;7.30;;;11.60;99.90;;;;;;10111716;28;20033;-62
2023/02/23 23:10:48;;;;;;;9.65;6.47;;;11.60;99.90;;;;;;10123630;28;20437;-62
2023/02/23 23:15:41;;;;;;;13.68;6.88;;;11.60;99.90;;;;;;10126636;28;20029;-63
2023/02/23 23:20:31;;;;;;;9.52;6.30;;;11.50;99.90;;;;;;10109053;28;20156;-62
2023/02/23 23:25:22;;;;;;;12.88;6.47;;;11.40;99.90;;;;;;10134369;28;20129;-62
2023/02/23 23:30:14;;;;;;;12.73;7.40;;;11.40;99.90;;;;;;10128360;28;20021;-63
2023/02/23 23:35:09;;;;;;;15.10;7.30;;;11.40;99.90;;;;;;10143931;28;20049;-63
2023/02/23 23:40:04;;;;;;;13.02;5.97;;;11.40;99.90;;;;;;10143635;28;20398;-63
2023/02/23 23:44:55;;;;;;;12.70;8.00;;;11.50;99.90;;;;;;10130626;28;20036;-62
2023/02/23 23:49:46;;;;;;;16.80;7.82;;;11.30;99.90;;;;;;10149392;28;20020;-64
2023/02/23 23:54:41;;;;;;;17.08;8.23;;;11.30;99.90;;;;;;10143571;28;20032;-64
2023/02/23 23:59:34;;;;;;;17.27;8.57;;;11.30;99.90;;;;;;10136294;28;20060;-62
